createdAt,value
2018-08-07T00:00:24.785Z,58.97
2018-08-07T00:02:53.725Z,59.00
2018-08-07T00:05:22.767Z,58.76
2018-08-07T00:07:54.123Z,59.27
2018-08-07T00:10:24.237Z,59.62
2018-08-07T00:12:53.207Z,58.86
2018-08-07T00:15:24.111Z,58.91
2018-08-07T00:17:52.999Z,58.39
2018-08-07T00:20:22.045Z,58.60
2018-08-07T00:22:50.945Z,59.26
2018-08-07T00:25:19.918Z,60.40
2018-08-07T00:27:48.835Z,60.95
2018-08-07T00:30:18.029Z,60.69
2018-08-07T00:32:47.420Z,60.11
2018-08-07T00:35:18.167Z,60.92
2018-08-07T00:37:47.485Z,60.22
2018-08-07T00:40:17.483Z,60.89
2018-08-07T00:42:46.931Z,61.73
2018-08-07T00:45:18.549Z,61.46
2018-08-07T00:47:47.550Z,61.16
2018-08-07T00:50:18.318Z,61.24
2018-08-07T00:52:47.837Z,62.18
2018-08-07T00:55:17.973Z,61.98
2018-08-07T00:57:47.332Z,62.32
2018-08-07T01:00:16.390Z,62.15
2018-08-07T01:02:45.332Z,61.94
2018-08-07T01:05:16.649Z,62.17
2018-08-07T01:07:45.646Z,61.72
2018-08-07T01:10:16.322Z,62.15
2018-08-07T01:12:45.300Z,62.47
2018-08-07T01:15:17.983Z,62.42
2018-08-07T01:17:47.339Z,63.42
2018-08-07T01:20:18.659Z,63.86
2018-08-07T01:22:47.683Z,63.80
2018-08-07T01:25:20.153Z,63.77
2018-08-07T01:27:49.204Z,63.73
2018-08-07T01:30:20.919Z,63.69
2018-08-07T01:32:50.057Z,63.28
2018-08-07T01:35:19.223Z,62.92
2018-08-07T01:37:48.298Z,63.27
2018-08-07T01:40:17.423Z,63.04
2018-08-07T01:42:46.348Z,62.97
2018-08-07T01:45:15.300Z,62.56
2018-08-07T01:47:44.199Z,62.61
2018-08-07T01:50:15.003Z,62.81
2018-08-07T01:52:44.179Z,63.24
2018-08-07T01:55:25.014Z,63.00
2018-08-07T01:57:53.993Z,63.12
2018-08-07T02:00:22.934Z,62.75
2018-08-07T02:02:52.163Z,62.61
2018-08-07T02:05:26.105Z,62.89
2018-08-07T02:07:55.148Z,62.97
2018-08-07T02:10:24.625Z,63.15
2018-08-07T02:12:53.598Z,63.22
2018-08-07T02:15:22.581Z,62.73
2018-08-07T02:17:51.543Z,63.48
2018-08-07T02:20:20.467Z,62.84
2018-08-07T02:22:49.375Z,62.52
2018-08-07T02:25:19.424Z,63.21
2018-08-07T02:27:48.773Z,63.37
2018-08-07T02:30:18.773Z,63.15
2018-08-07T02:32:47.792Z,63.83
2018-08-07T02:35:17.463Z,63.10
2018-08-07T02:37:47.398Z,62.87
2018-08-07T02:40:16.927Z,62.86
2018-08-07T02:42:46.079Z,62.85
2018-08-07T02:45:16.839Z,62.59
2018-08-07T02:47:46.239Z,62.92
2018-08-07T02:50:18.166Z,63.07
2018-08-07T02:52:47.371Z,62.80
2018-08-07T02:55:16.291Z,62.21
2018-08-07T02:57:45.708Z,61.83
2018-08-07T03:00:18.008Z,61.56
2018-08-07T03:02:47.175Z,61.70
2018-08-07T03:05:16.773Z,61.30
2018-08-07T03:07:45.756Z,61.65
2018-08-07T03:10:20.278Z,61.88
2018-08-07T03:12:49.212Z,61.29
2018-08-07T03:15:20.004Z,61.56
2018-08-07T03:17:49.544Z,61.81
2018-08-07T03:20:18.948Z,61.39
2018-08-07T03:22:47.946Z,62.52
2018-08-07T03:25:16.897Z,61.81
2018-08-07T03:27:46.334Z,62.55
2018-08-07T03:30:19.979Z,62.33
2018-08-07T03:32:49.389Z,62.13
2018-08-07T03:35:18.439Z,61.52
2018-08-07T03:37:47.343Z,61.88
2018-08-07T03:40:19.381Z,62.82
2018-08-07T03:42:48.432Z,63.70
2018-08-07T03:45:18.619Z,63.82
2018-08-07T03:47:48.231Z,64.16
2018-08-07T03:50:17.213Z,64.14
2018-08-07T03:52:46.115Z,64.36
2018-08-07T03:55:17.187Z,64.89
2018-08-07T03:57:46.591Z,64.77
2018-08-07T04:00:18.204Z,65.67
2018-08-07T04:02:47.147Z,65.24
2018-08-07T04:05:16.300Z,65.67
2018-08-07T04:07:45.381Z,65.69
2018-08-07T04:10:15.761Z,66.08
2018-08-07T04:12:44.837Z,66.55
2018-08-07T04:15:15.849Z,66.46
2018-08-07T04:17:45.096Z,66.73
2018-08-07T04:20:16.877Z,66.60
2018-08-07T04:22:46.109Z,66.14
2018-08-07T04:25:15.159Z,66.84
2018-08-07T04:27:44.186Z,66.86
2018-08-07T04:30:16.206Z,66.66
2018-08-07T04:32:45.481Z,66.56
2018-08-07T04:35:15.296Z,66.66
2018-08-07T04:37:44.629Z,66.42
2018-08-07T04:40:13.531Z,66.27
2018-08-07T04:42:42.838Z,65.55
2018-08-07T04:45:16.830Z,65.76
2018-08-07T04:47:46.684Z,66.02
2018-08-07T04:50:15.638Z,66.86
2018-08-07T04:52:44.781Z,67.85
2018-08-07T04:55:13.709Z,67.99
2018-08-07T04:57:42.726Z,67.71
2018-08-07T05:00:14.213Z,67.39
2018-08-07T05:02:43.885Z,66.74
2018-08-07T05:05:12.854Z,67.31
2018-08-07T05:07:41.851Z,66.59
2018-08-07T05:10:13.949Z,66.86
2018-08-07T05:12:43.865Z,66.56
2018-08-07T05:15:13.326Z,66.78
2018-08-07T05:17:43.418Z,66.16
2018-08-07T05:20:12.300Z,66.68
2018-08-07T05:22:41.376Z,66.46
2018-08-07T05:25:11.287Z,66.35
2018-08-07T05:27:40.273Z,65.49
2018-08-07T05:30:11.316Z,64.89
2018-08-07T05:32:40.278Z,65.15
2018-08-07T05:35:10.296Z,65.37
2018-08-07T05:37:39.300Z,65.46
2018-08-07T05:40:09.854Z,64.74
2018-08-07T05:42:39.123Z,62.55
2018-08-07T05:45:09.740Z,61.92
2018-08-07T05:47:38.817Z,62.59
2018-08-07T05:50:11.539Z,62.56
2018-08-07T05:52:40.412Z,62.11
2018-08-07T05:55:09.908Z,62.30
2018-08-07T05:57:39.050Z,60.61
2018-08-07T06:00:17.230Z,60.48
2018-08-07T06:02:47.190Z,59.48
2018-08-07T06:05:16.348Z,59.50
2018-08-07T06:07:45.500Z,59.90
2018-08-07T06:10:14.748Z,58.37
2018-08-07T06:12:43.843Z,58.22
2018-08-07T06:15:14.660Z,59.64
2018-08-07T06:17:44.347Z,58.79
2018-08-07T06:20:13.410Z,58.53
2018-08-07T06:22:42.560Z,57.75
2018-08-07T06:25:11.915Z,57.17
2018-08-07T06:27:40.812Z,57.12
2018-08-07T06:30:19.559Z,56.84
2018-08-07T06:32:49.306Z,56.60
2018-08-07T06:35:18.822Z,56.85
2018-08-07T06:37:47.832Z,56.38
2018-08-07T06:40:16.772Z,56.04
2018-08-07T06:42:45.853Z,56.05
2018-08-07T06:45:16.319Z,56.38
2018-08-07T06:47:45.212Z,55.13
2018-08-07T06:50:16.402Z,55.67
2018-08-07T06:52:45.972Z,55.92
2018-08-07T06:55:15.006Z,53.22
2018-08-07T06:57:44.180Z,49.49
2018-08-07T07:00:15.076Z,47.89
2018-08-07T07:02:43.957Z,46.49
2018-08-07T07:05:12.983Z,45.09
2018-08-07T07:07:41.950Z,43.05
2018-08-07T07:10:12.296Z,41.89
2018-08-07T07:12:42.143Z,39.93
2018-08-07T07:15:12.422Z,39.12
2018-08-07T07:17:42.000Z,39.38
2018-08-07T07:20:13.080Z,38.84
2018-08-07T07:22:43.344Z,38.56
2018-08-07T07:25:12.443Z,38.68
2018-08-07T07:27:42.068Z,37.66
2018-08-07T07:30:21.393Z,38.40
2018-08-07T07:32:51.824Z,38.42
2018-08-07T07:35:20.858Z,38.33
2018-08-07T07:37:49.871Z,37.31
2018-08-07T07:40:18.770Z,36.40
2018-08-07T07:42:47.835Z,37.90
2018-08-07T07:45:18.077Z,37.21
2018-08-07T07:47:47.041Z,36.99
2018-08-07T07:50:17.891Z,37.98
2018-08-07T07:52:47.020Z,38.69
2018-08-07T07:55:16.608Z,38.84
2018-08-07T07:57:45.564Z,38.79
2018-08-07T08:00:23.136Z,39.10
2018-08-07T08:02:52.528Z,39.48
2018-08-07T08:05:22.331Z,39.15
2018-08-07T08:07:51.402Z,38.28
2018-08-07T08:10:20.330Z,37.41
2018-08-07T08:12:49.247Z,37.20
2018-08-07T08:15:18.749Z,35.63
2018-08-07T08:17:48.640Z,35.75
2018-08-07T08:20:20.748Z,34.58
2018-08-07T08:22:50.530Z,33.99
2018-08-07T08:25:19.439Z,33.45
2018-08-07T08:27:48.486Z,33.23
2018-08-07T08:30:17.883Z,33.54
2018-08-07T08:32:47.283Z,34.06
2018-08-07T08:35:17.204Z,34.14
2018-08-07T08:37:47.658Z,33.87
2018-08-07T08:40:19.099Z,33.89
2018-08-07T08:42:48.087Z,33.27
2018-08-07T08:45:18.146Z,33.44
2018-08-07T08:47:48.443Z,33.27
2018-08-07T08:50:18.516Z,32.74
2018-08-07T08:52:47.462Z,33.13
2018-08-07T08:55:16.347Z,32.69
2018-08-07T08:57:45.610Z,32.94
2018-08-07T09:00:21.739Z,33.18
2018-08-07T09:02:50.707Z,32.93
2018-08-07T09:05:19.759Z,33.28
2018-08-07T09:07:48.682Z,33.95
2018-08-07T09:10:20.708Z,34.85
2018-08-07T09:12:50.083Z,35.23
2018-08-07T09:15:19.000Z,35.71
2018-08-07T09:17:48.166Z,34.76
2018-08-07T09:20:22.074Z,34.67
2018-08-07T09:22:51.176Z,34.39
2018-08-07T09:25:20.862Z,34.98
2018-08-07T09:27:49.797Z,35.22
2018-08-07T09:45:34.811Z,32.22
2018-08-07T09:48:06.919Z,31.31
2018-08-07T09:50:35.890Z,31.41
2018-08-07T09:53:04.878Z,32.16
2018-08-07T09:55:33.890Z,32.29
2018-08-07T09:58:02.908Z,33.15
2018-08-07T10:00:37.387Z,32.44
2018-08-07T10:03:11.874Z,33.31
2018-08-07T10:05:41.016Z,33.34
2018-08-07T10:08:10.050Z,33.43
2018-08-07T10:10:39.018Z,32.39
2018-08-07T10:13:07.996Z,32.47
2018-08-07T10:15:36.968Z,31.59
2018-08-07T10:18:05.942Z,30.81
2018-08-07T10:20:34.990Z,31.35
2018-08-07T10:23:04.080Z,31.46
2018-08-07T10:25:33.168Z,30.69
2018-08-07T10:28:02.129Z,31.16
2018-08-07T10:30:31.136Z,31.15
2018-08-07T10:33:00.123Z,30.74
2018-08-07T10:35:29.039Z,31.40
2018-08-07T10:37:57.992Z,31.34
2018-08-07T10:40:28.031Z,29.14
2018-08-07T10:42:56.941Z,27.56
2018-08-07T10:45:26.604Z,26.34
2018-08-07T10:47:55.522Z,26.80
2018-08-07T10:50:25.714Z,27.54
2018-08-07T10:52:54.727Z,26.91
2018-08-07T10:55:24.342Z,26.80
2018-08-07T10:57:55.513Z,27.75
2018-08-07T11:00:26.212Z,27.29
2018-08-07T11:02:55.626Z,27.71
2018-08-07T11:05:25.225Z,26.53
2018-08-07T11:07:54.259Z,26.05
2018-08-07T11:10:23.640Z,25.80
2018-08-07T11:12:53.028Z,25.90
2018-08-07T11:15:25.423Z,27.60
2018-08-07T11:17:55.374Z,26.69
2018-08-07T11:20:24.640Z,27.41
2018-08-07T11:22:54.562Z,27.49
2018-08-07T11:25:24.917Z,28.18
2018-08-07T11:27:53.896Z,27.75
2018-08-07T11:30:24.484Z,27.82
2018-08-07T11:32:54.422Z,27.51
2018-08-07T11:35:24.880Z,26.77
2018-08-07T11:37:54.768Z,27.58
2018-08-07T11:40:24.505Z,27.41
2018-08-07T11:42:54.301Z,27.27
2018-08-07T11:45:25.505Z,27.92
2018-08-07T11:47:54.547Z,27.58
2018-08-07T11:50:24.801Z,28.12
2018-08-07T11:52:53.845Z,27.95
2018-08-07T11:55:23.023Z,27.90
2018-08-07T11:57:57.404Z,28.68
2018-08-07T12:00:33.786Z,28.70
2018-08-07T12:03:03.204Z,29.09
2018-08-07T12:05:32.152Z,29.55
2018-08-07T12:08:01.104Z,29.06
2018-08-07T12:10:29.977Z,29.47
2018-08-07T12:12:58.949Z,29.11
2018-08-07T12:15:27.888Z,28.88
2018-08-07T12:17:57.079Z,28.23
2018-08-07T12:20:26.085Z,28.61
2018-08-07T12:22:55.003Z,28.70
2018-08-07T12:25:23.994Z,29.50
2018-08-07T12:27:52.995Z,29.17
2018-08-07T12:30:24.162Z,29.18
2018-08-07T12:32:53.140Z,28.17
2018-08-07T12:35:22.086Z,28.76
2018-08-07T12:37:51.188Z,28.74
2018-08-07T12:40:26.045Z,29.56
2018-08-07T12:42:58.726Z,28.96
2018-08-07T12:45:27.630Z,28.63
2018-08-07T12:47:56.640Z,28.15
2018-08-07T12:50:25.659Z,27.70
2018-08-07T12:52:54.770Z,28.94
2018-08-07T12:55:24.368Z,28.87
2018-08-07T12:57:53.674Z,28.65
2018-08-07T13:00:25.059Z,27.98
2018-08-07T13:02:54.012Z,28.88
2018-08-07T13:05:22.923Z,27.89
2018-08-07T13:07:51.833Z,29.07
2018-08-07T13:10:22.093Z,29.03
2018-08-07T13:12:51.587Z,28.40
2018-08-07T13:15:21.201Z,28.95
2018-08-07T13:17:50.434Z,28.21
2018-08-07T13:20:19.386Z,28.72
2018-08-07T13:22:48.582Z,29.05
2018-08-07T13:25:19.666Z,28.31
2018-08-07T13:27:48.618Z,28.25
2018-08-07T13:30:22.039Z,28.30
2018-08-07T13:32:50.966Z,28.82
2018-08-07T13:35:19.947Z,28.31
2018-08-07T13:37:50.465Z,28.98
2018-08-07T13:40:20.553Z,28.67
2018-08-07T13:42:49.502Z,28.73
2018-08-07T13:45:20.785Z,28.94
2018-08-07T13:47:49.723Z,28.25
2018-08-07T13:50:20.907Z,28.43
2018-08-07T13:52:50.339Z,28.29
2018-08-07T13:55:20.077Z,28.52
2018-08-07T13:57:49.205Z,28.57
2018-08-07T14:00:26.099Z,29.09
2018-08-07T14:02:55.321Z,28.73
2018-08-07T14:05:24.547Z,28.41
2018-08-07T14:07:54.629Z,28.32
2018-08-07T14:10:24.729Z,28.33
2018-08-07T14:12:53.711Z,28.08
2018-08-07T14:15:23.731Z,27.54
2018-08-07T14:17:52.687Z,27.92
2018-08-07T14:20:21.597Z,27.75
2018-08-07T14:22:50.508Z,27.61
2018-08-07T14:25:25.556Z,28.20
2018-08-07T14:27:54.689Z,27.43
2018-08-07T14:30:30.739Z,27.41
2018-08-07T14:33:01.395Z,27.73
2018-08-07T14:35:30.373Z,27.43
2018-08-07T14:37:59.261Z,27.64
2018-08-07T14:40:28.874Z,28.07
2018-08-07T14:42:57.883Z,27.75
2018-08-07T14:45:28.279Z,27.96
2018-08-07T14:47:57.879Z,28.65
2018-08-07T14:50:28.256Z,28.37
2018-08-07T14:52:57.245Z,28.08
2018-08-07T14:55:26.446Z,28.05
2018-08-07T14:57:55.485Z,28.61
2018-08-07T15:00:26.005Z,27.99
2018-08-07T15:02:54.963Z,27.95
2018-08-07T15:05:23.931Z,27.62
2018-08-07T15:07:52.964Z,27.41
2018-08-07T15:10:25.197Z,28.07
2018-08-07T15:12:54.152Z,27.14
2018-08-07T15:15:26.778Z,26.53
2018-08-07T15:17:55.772Z,26.83
2018-08-07T15:20:26.469Z,26.96
2018-08-07T15:22:55.894Z,27.56
2018-08-07T15:25:25.359Z,27.83
2018-08-07T15:27:54.284Z,27.56
2018-08-07T15:30:25.382Z,27.66
2018-08-07T15:32:54.814Z,27.46
2018-08-07T15:35:25.325Z,27.55
2018-08-07T15:37:54.156Z,28.28
2018-08-07T15:40:23.317Z,28.78
2018-08-07T15:42:52.234Z,28.16
2018-08-07T15:45:22.503Z,27.98
2018-08-07T15:47:51.464Z,27.89
2018-08-07T15:50:21.067Z,27.70
2018-08-07T15:52:51.290Z,27.61
2018-08-07T15:55:22.014Z,28.06
2018-08-07T15:57:50.943Z,28.32
2018-08-07T16:00:24.341Z,28.05
2018-08-07T16:02:53.624Z,28.38
2018-08-07T16:05:22.613Z,28.37
2018-08-07T16:07:52.613Z,28.02
2018-08-07T16:10:21.882Z,28.29
2018-08-07T16:12:51.711Z,28.04
2018-08-07T16:15:20.688Z,28.56
2018-08-07T16:17:50.622Z,28.02
2018-08-07T16:20:19.688Z,27.85
2018-08-07T16:22:48.641Z,27.58
2018-08-07T16:25:18.676Z,27.66
2018-08-07T16:27:48.529Z,28.27
2018-08-07T16:30:22.053Z,28.38
2018-08-07T16:32:51.955Z,28.10
2018-08-07T16:35:21.035Z,28.15
2018-08-07T16:37:50.444Z,28.71
2018-08-07T16:40:21.505Z,29.07
2018-08-07T16:42:51.381Z,28.44
2018-08-07T16:45:22.383Z,28.45
2018-08-07T16:47:51.380Z,28.15
2018-08-07T16:50:23.723Z,28.43
2018-08-07T16:52:53.742Z,28.75
2018-08-07T16:55:24.036Z,28.44
2018-08-07T16:57:52.988Z,28.96
2018-08-07T17:00:22.131Z,30.01
2018-08-07T17:02:51.224Z,29.23
2018-08-07T17:05:20.140Z,28.49
2018-08-07T17:07:49.857Z,28.97
2018-08-07T17:10:24.055Z,29.10
2018-08-07T17:12:53.959Z,28.97
2018-08-07T17:15:22.989Z,29.23
2018-08-07T17:17:52.147Z,29.64
2018-08-07T17:20:22.181Z,30.59
2018-08-07T17:22:51.817Z,29.49
2018-08-07T17:25:21.756Z,29.36
2018-08-07T17:27:51.143Z,29.72
2018-08-07T17:30:22.215Z,29.70
2018-08-07T17:32:51.262Z,29.23
2018-08-07T17:35:21.596Z,29.86
2018-08-07T17:37:52.222Z,29.73
2018-08-07T17:40:23.168Z,29.92
2018-08-07T17:42:52.441Z,29.95
2018-08-07T17:45:21.560Z,29.82
2018-08-07T17:47:50.474Z,30.40
2018-08-07T17:50:24.500Z,30.05
2018-08-07T17:52:54.978Z,30.80
2018-08-07T17:55:23.948Z,30.15
2018-08-07T17:57:54.191Z,30.46
2018-08-07T18:00:24.188Z,30.54
2018-08-07T18:02:53.191Z,30.69
2018-08-07T18:05:23.028Z,30.41
2018-08-07T18:07:53.460Z,30.45
2018-08-07T18:10:23.184Z,30.68
2018-08-07T18:12:52.090Z,30.66
2018-08-07T18:15:21.978Z,31.17
2018-08-07T18:17:51.578Z,31.73
2018-08-07T18:20:23.718Z,31.00
2018-08-07T18:22:52.687Z,31.53
2018-08-07T18:25:21.605Z,32.21
2018-08-07T18:27:50.613Z,32.45
2018-08-07T18:30:23.948Z,33.13
2018-08-07T18:32:53.158Z,32.93
2018-08-07T18:35:23.322Z,33.00
2018-08-07T18:37:52.478Z,33.11
2018-08-07T18:40:21.767Z,32.87
2018-08-07T18:42:50.683Z,33.17
2018-08-07T18:45:20.263Z,33.44
2018-08-07T18:47:49.328Z,33.06
2018-08-07T18:50:20.962Z,33.32
2018-08-07T18:52:50.248Z,33.98
2018-08-07T18:55:19.796Z,33.36
2018-08-07T18:57:50.564Z,33.37
2018-08-07T19:00:22.326Z,33.71
2018-08-07T19:02:51.496Z,33.65
2018-08-07T19:05:21.672Z,33.94
2018-08-07T19:07:50.728Z,33.53
2018-08-07T19:10:19.638Z,34.25
2018-08-07T19:12:50.272Z,34.36
2018-08-07T19:15:20.224Z,34.14
2018-08-07T19:18:20.140Z,34.82
2018-08-07T19:20:49.077Z,34.46
2018-08-07T19:23:17.995Z,33.50
2018-08-07T19:25:46.990Z,32.84
2018-08-07T19:28:15.961Z,34.09
2018-08-07T19:30:44.903Z,34.09
2018-08-07T19:33:14.384Z,33.70
2018-08-07T19:35:43.323Z,33.85
2018-08-07T19:38:12.769Z,33.76
2018-08-07T19:40:41.965Z,33.72
2018-08-07T19:43:11.195Z,33.82
2018-08-07T19:45:40.231Z,34.88
2018-08-07T19:48:09.597Z,35.50
2018-08-07T19:50:38.837Z,35.91
2018-08-07T19:53:08.507Z,37.13
2018-08-07T19:55:37.729Z,36.78
2018-08-07T19:58:06.765Z,37.61
2018-08-07T20:00:36.370Z,37.63
2018-08-07T20:03:05.474Z,38.47
2018-08-07T20:05:34.407Z,38.77
2018-08-07T20:08:03.666Z,38.29
2018-08-07T20:10:33.056Z,38.48
2018-08-07T20:13:02.137Z,37.32
2018-08-07T20:15:31.238Z,37.21
2018-08-07T20:18:00.199Z,37.29
2018-08-07T20:20:29.249Z,36.54
2018-08-07T20:22:58.383Z,35.76
2018-08-07T20:25:27.846Z,35.78
2018-08-07T20:27:56.769Z,35.33
2018-08-07T20:30:25.895Z,34.78
2018-08-07T20:32:56.333Z,34.75
2018-08-07T20:35:25.338Z,35.17
2018-08-07T20:37:54.407Z,34.75
2018-08-07T20:40:24.997Z,34.83
2018-08-07T20:42:55.234Z,35.23
2018-08-07T20:45:29.683Z,35.45
2018-08-07T20:47:58.624Z,35.82
2018-08-07T20:50:27.680Z,36.11
2018-08-07T20:52:57.286Z,36.98
2018-08-07T20:55:26.215Z,37.20
2018-08-07T20:57:55.175Z,36.65
2018-08-07T21:00:25.598Z,36.53
2018-08-07T21:02:54.576Z,36.93
2018-08-07T21:05:23.765Z,36.76
2018-08-07T21:07:52.972Z,37.30
2018-08-07T21:10:23.806Z,36.96
2018-08-07T21:12:52.847Z,37.22
2018-08-07T21:15:21.908Z,37.04
2018-08-07T21:17:50.883Z,37.10
2018-08-07T21:20:21.458Z,36.75
2018-08-07T21:22:50.482Z,37.00
2018-08-07T21:25:20.775Z,37.00
2018-08-07T21:27:51.463Z,36.50
2018-08-07T21:30:22.690Z,35.69
2018-08-07T21:32:51.694Z,36.24
2018-08-07T21:35:20.708Z,34.92
2018-08-07T21:37:49.636Z,37.36
2018-08-07T21:40:19.891Z,39.42
2018-08-07T21:42:49.756Z,41.09
2018-08-07T21:45:18.951Z,41.28
2018-08-07T21:47:47.964Z,41.52
2018-08-07T21:50:18.935Z,41.54
2018-08-07T21:52:48.970Z,42.32
2018-08-07T21:55:18.819Z,42.76
2018-08-07T21:57:47.823Z,43.53
2018-08-07T22:00:20.843Z,44.33
2018-08-07T22:02:49.953Z,45.18
2018-08-07T22:05:18.919Z,45.98
2018-08-07T22:07:47.858Z,46.44
2018-08-07T22:10:21.453Z,46.44
2018-08-07T22:12:50.355Z,45.92
2018-08-07T22:15:19.947Z,45.76
2018-08-07T22:17:48.895Z,46.58
2018-08-07T22:20:17.833Z,46.55
2018-08-07T22:22:46.711Z,48.22
2018-08-07T22:25:15.681Z,49.30
2018-08-07T22:27:44.687Z,49.95
2018-08-07T22:30:16.657Z,49.95
2018-08-07T22:32:45.633Z,50.51
2018-08-07T22:35:14.688Z,50.56
2018-08-07T22:37:43.667Z,51.16
2018-08-07T22:40:13.645Z,50.93
2018-08-07T22:42:42.767Z,51.76
2018-08-07T22:45:13.461Z,51.85
2018-08-07T22:47:42.850Z,52.34
2018-08-07T22:50:13.099Z,52.93
2018-08-07T22:52:42.529Z,53.87
2018-08-07T22:55:13.783Z,54.27
2018-08-07T22:57:43.013Z,53.87
2018-08-07T23:00:16.471Z,56.05
2018-08-07T23:02:45.311Z,58.13
2018-08-07T23:05:15.271Z,61.70
2018-08-07T23:07:44.307Z,64.69
2018-08-07T23:10:16.670Z,66.99
2018-08-07T23:12:45.827Z,65.85
2018-08-07T23:15:16.970Z,65.72
2018-08-07T23:17:51.428Z,66.34
2018-08-07T23:20:21.873Z,67.33
2018-08-07T23:22:53.835Z,67.10
2018-08-07T23:25:22.861Z,67.51
2018-08-07T23:27:51.820Z,69.47
2018-08-07T23:30:21.175Z,70.84
2018-08-07T23:32:50.109Z,71.10
2018-08-07T23:35:18.983Z,71.31
2018-08-07T23:37:47.883Z,71.82
2018-08-07T23:40:16.803Z,71.03
2018-08-07T23:42:46.843Z,70.58
2018-08-07T23:45:16.271Z,70.12
2018-08-07T23:47:45.153Z,71.81
2018-08-07T23:50:14.704Z,72.15
2018-08-07T23:52:43.693Z,71.63
2018-08-07T23:55:12.787Z,71.39
2018-08-07T23:57:41.675Z,72.14
